Time;durP1;ratioP1;P1;durP2;ratioP2;P2;SDS_P1;SDS_P2;PMS_P1;PMS_P2;Temp;Humidity;BMP_temperature;BMP_pressure;BME280_temperature;BME280_humidity;BME280_pressure;Samples;Min_cycle;Max_cycle;Signal;HPM_P1;HPM_P2
2023/05/24 00:00:32;;;;;;;12.75;10.32;;;13.70;99.90;;;;;;5043299;28;20108;-74
2023/05/24 00:03:01;;;;;;;13.30;10.25;;;13.70;99.90;;;;;;5064216;28;20076;-75
2023/05/24 00:05:29;;;;;;;13.82;10.00;;;13.70;99.90;;;;;;5061231;28;20040;-75
2023/05/24 00:07:58;;;;;;;15.25;9.80;;;13.60;99.90;;;;;;5047469;28;20067;-75
2023/05/24 00:10:25;;;;;;;12.10;9.98;;;13.60;99.90;;;;;;5046549;28;20041;-74
2023/05/24 00:12:54;;;;;;;14.98;10.18;;;13.50;99.90;;;;;;5048584;28;20120;-75
2023/05/24 00:15:22;;;;;;;17.15;9.25;;;13.50;99.90;;;;;;5047593;28;20071;-74
2023/05/24 00:17:49;;;;;;;13.95;9.88;;;13.50;99.90;;;;;;5049471;28;20408;-75
2023/05/24 00:20:19;;;;;;;12.13;9.93;;;13.50;99.90;;;;;;5047511;28;20037;-75
2023/05/24 00:22:47;;;;;;;12.98;9.23;;;13.50;99.90;;;;;;5040518;28;20084;-73
2023/05/24 00:25:14;;;;;;;13.40;9.32;;;13.50;99.90;;;;;;5037571;28;20049;-75
2023/05/24 00:27:41;;;;;;;10.85;9.15;;;13.50;99.90;;;;;;5036287;28;20065;-73
2023/05/24 00:30:11;;;;;;;9.65;8.55;;;13.40;99.90;;;;;;5035887;28;20077;-73
2023/05/24 00:32:39;;;;;;;12.00;9.30;;;13.30;99.90;;;;;;5052911;28;20041;-73
2023/05/24 00:35:07;;;;;;;13.30;10.23;;;13.20;99.90;;;;;;5054613;28;20041;-74
2023/05/24 00:37:36;;;;;;;13.75;9.68;;;13.20;99.90;;;;;;5025882;28;20091;-75
2023/05/24 00:40:04;;;;;;;12.77;10.68;;;13.10;99.90;;;;;;5025826;28;20441;-74
2023/05/24 00:42:31;;;;;;;14.90;10.60;;;13.00;99.90;;;;;;5026195;28;20048;-74
2023/05/24 00:44:58;;;;;;;16.17;10.30;;;13.00;99.90;;;;;;5026517;28;20068;-74
2023/05/24 00:47:27;;;;;;;13.55;9.45;;;13.10;99.90;;;;;;5025529;28;20068;-73
2023/05/24 00:49:55;;;;;;;12.57;10.13;;;13.10;99.90;;;;;;5021725;28;20858;-74
2023/05/24 00:52:23;;;;;;;12.57;10.32;;;13.10;99.90;;;;;;5025050;28;20045;-75
2023/05/24 00:54:50;;;;;;;12.60;9.63;;;13.10;99.90;;;;;;5009476;28;20125;-74
2023/05/24 00:57:18;;;;;;;13.93;10.90;;;13.00;99.90;;;;;;5027421;28;20052;-75
2023/05/24 00:59:46;;;;;;;15.48;10.10;;;13.10;99.90;;;;;;5030456;28;20155;-74
2023/05/24 01:02:13;;;;;;;13.45;10.30;;;13.00;99.90;;;;;;5043980;28;20079;-74
2023/05/24 01:04:43;;;;;;;12.88;10.45;;;12.90;99.90;;;;;;5047913;28;20098;-75
2023/05/24 01:07:18;;;;;;;13.38;9.98;;;13.00;99.90;;;;;;5031530;28;20045;-75
2023/05/24 01:09:59;;;;;;;13.70;9.43;;;13.00;99.90;;;;;;5024197;28;20786;-75
2023/05/24 01:12:36;;;;;;;13.13;10.60;;;13.00;99.90;;;;;;5046435;28;20521;-76
2023/05/24 01:15:11;;;;;;;12.43;9.95;;;13.00;99.90;;;;;;5054075;28;20049;-75
2023/05/24 01:17:47;;;;;;;13.95;9.85;;;12.90;99.90;;;;;;5045367;28;20045;-75
2023/05/24 01:20:19;;;;;;;13.32;9.52;;;12.90;99.90;;;;;;5058361;28;20076;-74
2023/05/24 01:23:12;;;;;;;11.55;9.60;;;12.80;99.90;;;;;;5041195;28;20057;-73
2023/05/24 01:25:49;;;;;;;13.20;10.98;;;12.80;99.90;;;;;;5058071;28;20492;-74
2023/05/24 01:28:19;;;;;;;13.57;11.18;;;12.70;99.90;;;;;;5057628;28;20520;-74
2023/05/24 01:30:46;;;;;;;15.48;11.57;;;12.60;99.90;;;;;;5057226;28;20041;-74
2023/05/24 01:33:16;;;;;;;16.33;12.30;;;12.70;99.90;;;;;;5058307;28;20047;-74
2023/05/24 01:35:43;;;;;;;11.95;10.65;;;12.70;99.90;;;;;;5055974;28;20063;-75
2023/05/24 01:38:13;;;;;;;13.13;9.65;;;12.60;99.90;;;;;;5041779;28;20064;-74
2023/05/24 01:40:42;;;;;;;12.73;10.38;;;12.60;99.90;;;;;;5056367;28;20131;-74
2023/05/24 01:43:21;;;;;;;12.00;9.93;;;12.50;99.90;;;;;;5058661;28;20128;-73
2023/05/24 01:45:57;;;;;;;12.75;10.40;;;12.50;99.90;;;;;;5056312;28;20052;-75
2023/05/24 01:48:34;;;;;;;14.48;10.50;;;12.60;99.90;;;;;;5060623;28;20037;-73
2023/05/24 01:51:07;;;;;;;14.73;10.27;;;12.60;99.90;;;;;;5065791;28;20062;-76
2023/05/24 01:53:39;;;;;;;15.60;9.60;;;12.60;99.90;;;;;;5059204;28;20070;-76
2023/05/24 01:56:08;;;;;;;14.68;9.23;;;12.60;99.90;;;;;;5055081;28;20040;-75
2023/05/24 01:58:40;;;;;;;11.43;8.88;;;12.60;99.90;;;;;;5048665;28;20529;-74
2023/05/24 02:01:09;;;;;;;12.10;9.20;;;12.50;99.90;;;;;;5031362;28;20041;-74
2023/05/24 02:03:37;;;;;;;15.15;9.43;;;12.50;99.90;;;;;;5040581;28;20037;-76
2023/05/24 02:06:05;;;;;;;12.63;9.95;;;12.40;99.90;;;;;;5034415;28;20479;-75
2023/05/24 02:08:33;;;;;;;13.75;10.30;;;12.40;99.90;;;;;;5024878;28;20052;-75
2023/05/24 02:11:01;;;;;;;13.82;9.32;;;12.40;99.90;;;;;;5056649;28;20094;-75
2023/05/24 02:13:28;;;;;;;12.50;9.60;;;12.40;99.90;;;;;;5060164;28;20527;-74
2023/05/24 02:15:57;;;;;;;11.50;9.40;;;12.40;99.90;;;;;;5049036;28;20519;-74
2023/05/24 02:18:26;;;;;;;12.07;9.55;;;12.40;99.90;;;;;;5036974;28;20127;-74
2023/05/24 02:20:53;;;;;;;13.00;9.73;;;12.40;99.90;;;;;;5037406;28;20505;-74
2023/05/24 02:23:23;;;;;;;14.75;9.85;;;12.30;99.90;;;;;;5055297;28;20057;-74
2023/05/24 02:25:50;;;;;;;12.82;8.80;;;12.30;99.90;;;;;;5047782;28;20041;-74
2023/05/24 02:28:17;;;;;;;11.48;9.02;;;12.30;99.90;;;;;;5047138;28;20493;-76
2023/05/24 02:30:45;;;;;;;11.35;8.50;;;12.30;99.90;;;;;;5039154;28;20116;-73
2023/05/24 02:33:14;;;;;;;10.35;8.15;;;12.30;99.90;;;;;;5047119;28;20615;-73
2023/05/24 02:35:42;;;;;;;10.73;9.40;;;12.30;99.90;;;;;;5041425;28;20131;-74
2023/05/24 02:38:09;;;;;;;10.65;8.38;;;12.30;99.90;;;;;;5041388;28;20106;-74
2023/05/24 02:40:37;;;;;;;12.48;8.98;;;12.30;99.90;;;;;;5059709;28;20566;-75
2023/05/24 02:43:04;;;;;;;18.55;10.77;;;12.20;99.90;;;;;;5057252;28;20389;-73
2023/05/24 02:45:32;;;;;;;13.25;9.60;;;12.20;99.90;;;;;;5030544;28;20041;-74
2023/05/24 02:48:00;;;;;;;14.35;9.15;;;12.20;99.90;;;;;;5049603;28;20044;-75
2023/05/24 02:50:29;;;;;;;14.32;9.38;;;12.20;99.90;;;;;;5020025;28;20508;-75
2023/05/24 02:52:56;;;;;;;13.02;9.35;;;12.20;99.90;;;;;;5037771;28;20049;-75
2023/05/24 02:55:24;;;;;;;12.63;9.68;;;12.20;99.90;;;;;;5036190;28;20087;-75
2023/05/24 02:57:52;;;;;;;11.48;8.75;;;12.20;99.90;;;;;;5037248;28;20072;-76
2023/05/24 03:00:21;;;;;;;13.43;9.90;;;12.20;99.90;;;;;;5056035;28;20053;-75
2023/05/24 03:02:51;;;;;;;14.13;9.80;;;12.30;99.90;;;;;;5069313;28;20037;-77
2023/05/24 03:05:18;;;;;;;13.32;9.13;;;12.20;99.90;;;;;;5054433;28;20049;-75
2023/05/24 03:07:47;;;;;;;12.85;9.77;;;12.20;99.90;;;;;;5037637;28;20099;-75
2023/05/24 03:10:16;;;;;;;18.20;12.85;;;12.10;99.90;;;;;;5052599;28;20133;-75
2023/05/24 03:12:44;;;;;;;16.80;11.45;;;12.10;99.90;;;;;;5048216;28;20053;-75
2023/05/24 03:15:12;;;;;;;15.73;10.73;;;12.00;99.90;;;;;;5045018;28;20045;-75
2023/05/24 03:17:39;;;;;;;12.27;9.82;;;12.00;99.90;;;;;;5038426;28;20151;-75
2023/05/24 03:20:10;;;;;;;17.77;11.27;;;11.90;99.90;;;;;;5022143;28;20048;-75
2023/05/24 03:22:37;;;;;;;11.73;9.55;;;12.00;99.90;;;;;;5068393;28;20080;-75
2023/05/24 03:25:08;;;;;;;13.50;9.38;;;12.00;99.90;;;;;;5067754;28;20041;-74
2023/05/24 03:27:36;;;;;;;9.38;8.43;;;12.00;99.90;;;;;;5064307;28;20052;-74
2023/05/24 03:30:05;;;;;;;13.65;9.10;;;12.10;99.90;;;;;;5055717;28;20508;-76
2023/05/24 03:32:37;;;;;;;13.00;10.15;;;12.10;99.90;;;;;;5039754;28;20586;-74
2023/05/24 03:35:05;;;;;;;10.60;9.32;;;12.20;99.90;;;;;;5053948;28;20045;-76
2023/05/24 03:37:33;;;;;;;12.25;9.23;;;12.20;99.90;;;;;;5038755;28;20037;-75
2023/05/24 03:40:03;;;;;;;11.05;9.13;;;12.30;99.90;;;;;;5040553;28;20064;-74
2023/05/24 03:42:40;;;;;;;12.75;9.05;;;12.30;99.90;;;;;;5038862;28;20478;-74
2023/05/24 03:45:10;;;;;;;12.38;9.95;;;12.30;99.90;;;;;;5040000;28;20053;-75
2023/05/24 03:47:38;;;;;;;12.40;9.98;;;12.30;99.90;;;;;;5054927;28;20410;-75
2023/05/24 03:50:07;;;;;;;14.23;12.48;;;12.40;99.90;;;;;;5039723;28;20179;-76
2023/05/24 03:52:35;;;;;;;13.68;9.80;;;12.60;99.90;;;;;;5056101;28;20063;-75
2023/05/24 03:55:04;;;;;;;10.25;8.35;;;12.80;99.90;;;;;;5039248;28;20040;-74
2023/05/24 03:57:32;;;;;;;10.80;8.18;;;13.20;99.90;;;;;;5037824;28;20047;-74
2023/05/24 04:00:01;;;;;;;11.95;7.30;;;13.80;99.90;;;;;;5040613;28;20687;-74
2023/05/24 04:02:28;;;;;;;8.93;7.10;;;14.40;99.90;;;;;;5053390;28;20079;-75
2023/05/24 04:04:56;;;;;;;10.93;7.03;;;14.90;99.90;;;;;;5037905;28;20037;-76
2023/05/24 04:07:24;;;;;;;9.95;6.53;;;15.60;99.90;;;;;;5035585;28;20045;-75
2023/05/24 04:09:52;;;;;;;9.05;6.32;;;16.20;99.90;;;;;;5037479;28;20084;-74
2023/05/24 04:12:19;;;;;;;8.48;6.82;;;16.60;99.90;;;;;;5038586;28;20045;-75
2023/05/24 04:14:47;;;;;;;9.30;6.18;;;16.90;99.90;;;;;;5036338;28;20049;-75
2023/05/24 04:17:16;;;;;;;7.97;5.97;;;17.10;99.90;;;;;;5036791;28;20136;-75
2023/05/24 04:19:45;;;;;;;8.52;6.15;;;17.50;99.90;;;;;;5036639;28;20048;-75
2023/05/24 04:22:13;;;;;;;10.15;6.15;;;18.00;99.90;;;;;;5036222;28;20573;-76
2023/05/24 04:24:40;;;;;;;7.88;6.10;;;18.00;99.90;;;;;;5035396;28;20134;-74
2023/05/24 04:27:08;;;;;;;12.60;6.65;;;18.00;99.90;;;;;;5052875;28;20501;-75
2023/05/24 04:29:36;;;;;;;9.45;6.22;;;18.50;99.90;;;;;;5036234;28;20406;-76
2023/05/24 04:32:05;;;;;;;10.80;6.55;;;19.30;99.90;;;;;;5036620;28;20098;-75
2023/05/24 04:34:34;;;;;;;9.15;5.75;;;20.00;99.90;;;;;;5060075;28;20199;-75
2023/05/24 04:37:02;;;;;;;12.75;6.10;;;20.20;99.90;;;;;;5060497;28;20533;-75
2023/05/24 04:39:30;;;;;;;11.20;5.97;;;20.60;99.90;;;;;;5035371;28;20045;-74
2023/05/24 04:41:59;;;;;;;11.65;7.10;;;20.40;99.90;;;;;;5037098;28;20037;-73
2023/05/24 04:44:27;;;;;;;8.57;6.70;;;20.00;99.90;;;;;;5038416;28;20037;-74
2023/05/24 04:46:54;;;;;;;7.40;6.03;;;20.20;99.90;;;;;;5040682;28;20045;-74
2023/05/24 04:49:22;;;;;;;7.85;5.78;;;20.50;99.90;;;;;;5039496;28;20045;-74
2023/05/24 04:51:51;;;;;;;12.30;6.40;;;21.00;99.90;;;;;;5040550;28;20043;-74
2023/05/24 04:54:19;;;;;;;9.55;5.50;;;21.30;99.90;;;;;;5039256;28;20094;-75
2023/05/24 04:56:46;;;;;;;13.77;7.78;;;21.10;99.90;;;;;;5039583;28;20497;-74
2023/05/24 04:59:14;;;;;;;11.18;6.22;;;21.00;99.90;;;;;;5041157;28;20122;-76
2023/05/24 05:01:41;;;;;;;10.18;7.28;;;20.90;99.90;;;;;;5040518;28;20041;-74
2023/05/24 05:04:09;;;;;;;12.85;8.43;;;21.40;99.90;;;;;;5040674;28;20037;-74
2023/05/24 05:06:39;;;;;;;10.57;6.30;;;22.60;99.50;;;;;;5039856;28;20042;-75
2023/05/24 05:09:09;;;;;;;8.18;6.30;;;23.70;94.20;;;;;;5038950;28;20058;-74
2023/05/24 05:11:37;;;;;;;9.85;6.05;;;24.00;89.60;;;;;;5039573;28;20048;-74
2023/05/24 05:14:05;;;;;;;10.38;6.15;;;24.10;87.10;;;;;;5040417;28;20041;-74
2023/05/24 05:16:32;;;;;;;8.60;6.70;;;24.60;84.50;;;;;;5058646;28;20044;-75
2023/05/24 05:19:00;;;;;;;15.40;7.97;;;25.30;80.10;;;;;;5041175;28;20087;-73
2023/05/24 05:21:27;;;;;;;9.43;6.55;;;25.70;75.70;;;;;;5029315;28;20073;-75
2023/05/24 05:23:55;;;;;;;12.30;7.65;;;25.60;74.40;;;;;;5020515;28;20095;-75
2023/05/24 05:26:23;;;;;;;10.98;7.63;;;25.50;73.40;;;;;;5050160;28;20555;-75
2023/05/24 05:28:51;;;;;;;9.50;7.68;;;25.40;74.30;;;;;;5051161;28;20037;-75
2023/05/24 05:31:18;;;;;;;11.48;8.73;;;25.30;73.50;;;;;;5049854;28;20041;-75
2023/05/24 05:33:46;;;;;;;12.23;7.35;;;24.90;73.50;;;;;;5051246;28;20251;-74
2023/05/24 05:36:13;;;;;;;9.95;6.93;;;24.10;76.10;;;;;;5051740;28;20057;-74
2023/05/24 05:38:41;;;;;;;9.05;7.25;;;23.70;78.40;;;;;;5039070;28;20555;-75
2023/05/24 05:41:08;;;;;;;8.15;6.32;;;24.00;78.40;;;;;;5055436;28;20439;-74
2023/05/24 05:43:39;;;;;;;11.20;8.45;;;24.10;78.60;;;;;;5048680;28;20047;-76
2023/05/24 05:46:07;;;;;;;13.02;7.13;;;24.10;79.00;;;;;;5049482;28;20051;-78
2023/05/24 05:48:34;;;;;;;10.82;7.35;;;24.00;79.80;;;;;;5055140;28;20045;-75
2023/05/24 05:51:02;;;;;;;12.60;7.25;;;24.10;79.70;;;;;;5055514;28;20045;-74
2023/05/24 05:53:29;;;;;;;10.68;7.57;;;24.10;80.70;;;;;;5037782;28;20464;-74
2023/05/24 05:55:57;;;;;;;9.10;7.72;;;24.00;80.10;;;;;;5055898;28;20064;-74
2023/05/24 05:58:24;;;;;;;12.13;7.85;;;24.30;80.70;;;;;;5054078;28;20068;-75
2023/05/24 06:00:53;;;;;;;13.73;7.80;;;24.40;80.30;;;;;;5053517;28;20049;-75
2023/05/24 06:03:20;;;;;;;15.05;8.40;;;24.10;80.50;;;;;;5053666;28;20047;-75
2023/05/24 06:05:48;;;;;;;15.48;9.27;;;23.90;79.90;;;;;;5055186;28;20140;-75
2023/05/24 06:08:15;;;;;;;13.23;9.02;;;23.70;81.40;;;;;;5053678;28;20033;-74
2023/05/24 06:10:43;;;;;;;12.80;8.35;;;23.40;82.30;;;;;;5050704;28;20037;-76
2023/05/24 06:13:10;;;;;;;13.52;8.70;;;22.80;84.90;;;;;;5051711;28;20099;-75
2023/05/24 06:15:38;;;;;;;17.10;11.02;;;22.80;89.10;;;;;;5052743;28;20128;-74
2023/05/24 06:18:07;;;;;;;14.43;9.60;;;22.90;89.10;;;;;;5051566;28;20045;-73
2023/05/24 06:20:35;;;;;;;13.57;9.07;;;23.20;90.40;;;;;;5050650;28;20470;-74
2023/05/24 06:23:03;;;;;;;15.52;9.55;;;23.30;89.10;;;;;;5049935;28;20061;-73
2023/05/24 06:25:31;;;;;;;18.05;10.68;;;23.40;89.60;;;;;;5049995;28;20329;-74
2023/05/24 06:27:59;;;;;;;17.30;11.48;;;23.30;89.60;;;;;;5048974;28;20047;-74
2023/05/24 06:30:26;;;;;;;21.25;12.23;;;22.80;90.80;;;;;;5050441;28;20041;-74
2023/05/24 06:32:55;;;;;;;19.15;12.68;;;22.70;92.20;;;;;;5050365;28;20051;-76
2023/05/24 06:35:23;;;;;;;20.42;13.40;;;22.70;92.70;;;;;;5052737;28;20048;-75
2023/05/24 06:37:51;;;;;;;25.40;15.48;;;23.00;93.80;;;;;;5052740;28;20138;-75
2023/05/24 06:40:19;;;;;;;22.63;15.80;;;23.10;94.80;;;;;;5056023;28;20033;-73
2023/05/24 06:42:47;;;;;;;23.13;15.43;;;22.80;97.10;;;;;;5061218;28;20041;-75
2023/05/24 06:45:14;;;;;;;24.38;16.58;;;22.70;99.90;;;;;;5064485;28;20114;-74
2023/05/24 06:47:42;;;;;;;25.98;19.73;;;22.80;99.90;;;;;;5034649;28;20590;-76
2023/05/24 06:50:10;;;;;;;24.23;17.27;;;22.70;99.90;;;;;;5049152;28;20037;-75
2023/05/24 06:52:39;;;;;;;24.35;19.48;;;22.80;99.90;;;;;;5059864;28;20072;-74
2023/05/24 06:55:07;;;;;;;29.60;17.85;;;23.30;99.90;;;;;;5038436;28;20037;-76
2023/05/24 06:57:35;;;;;;;28.33;19.50;;;23.70;99.90;;;;;;5052905;28;20045;-74
2023/05/24 07:00:04;;;;;;;23.08;17.30;;;23.80;99.90;;;;;;5031409;28;20063;-76
2023/05/24 07:02:31;;;;;;;26.17;18.90;;;24.00;99.90;;;;;;5048926;28;20049;-75
2023/05/24 07:04:59;;;;;;;28.58;17.73;;;23.90;99.90;;;;;;5050056;28;20041;-74
2023/05/24 07:07:26;;;;;;;25.80;19.35;;;23.80;99.90;;;;;;5048657;28;20080;-76
2023/05/24 07:09:55;;;;;;;26.75;19.30;;;23.70;99.90;;;;;;5029078;28;20049;-75
2023/05/24 07:12:24;;;;;;;29.17;20.05;;;24.10;99.90;;;;;;5048812;28;20121;-75
2023/05/24 07:14:52;;;;;;;34.20;25.08;;;24.50;99.90;;;;;;5047461;28;20053;-75
2023/05/24 07:17:19;;;;;;;28.50;17.63;;;24.50;99.90;;;;;;5049388;28;20044;-75
2023/05/24 07:19:47;;;;;;;28.75;18.25;;;24.50;98.50;;;;;;5050108;28;20073;-76
2023/05/24 07:22:15;;;;;;;22.88;17.73;;;23.80;99.90;;;;;;5048917;28;20076;-75
2023/05/24 07:24:42;;;;;;;25.05;16.75;;;24.00;99.90;;;;;;5048206;28;20056;-75
2023/05/24 07:27:11;;;;;;;26.00;18.20;;;24.30;99.90;;;;;;5048561;28;20120;-76
2023/05/24 07:29:39;;;;;;;23.40;17.23;;;24.40;99.90;;;;;;5048795;28;20041;-74
2023/05/24 07:32:06;;;;;;;23.70;15.77;;;24.50;99.90;;;;;;5049484;28;20052;-76
2023/05/24 07:34:34;;;;;;;20.50;15.88;;;24.90;99.90;;;;;;5048661;28;20076;-74
2023/05/24 07:37:02;;;;;;;25.88;17.30;;;25.40;97.60;;;;;;5049430;28;20132;-75
2023/05/24 07:39:29;;;;;;;19.17;14.60;;;25.60;95.50;;;;;;5048023;28;20076;-75
2023/05/24 07:41:56;;;;;;;21.90;15.38;;;25.60;94.50;;;;;;5047575;28;20045;-75
2023/05/24 07:44:25;;;;;;;22.20;15.98;;;25.40;94.40;;;;;;5047988;28;20055;-74
2023/05/24 07:46:54;;;;;;;21.17;16.90;;;25.10;94.80;;;;;;5049317;28;20045;-75
2023/05/24 07:49:22;;;;;;;22.45;14.85;;;24.90;96.60;;;;;;5047631;28;20131;-75
2023/05/24 07:51:49;;;;;;;16.00;11.80;;;25.00;96.70;;;;;;5048205;28;20152;-75
2023/05/24 07:54:17;;;;;;;14.60;10.90;;;24.90;97.20;;;;;;5047834;28;20548;-75
2023/05/24 07:56:44;;;;;;;14.30;8.82;;;25.10;96.70;;;;;;5045978;28;20037;-75
2023/05/24 07:59:11;;;;;;;24.58;14.32;;;25.30;95.20;;;;;;5046301;28;20149;-75
2023/05/24 08:01:41;;;;;;;19.30;14.40;;;25.40;95.50;;;;;;5048317;28;20152;-75
2023/05/24 08:04:09;;;;;;;19.85;14.90;;;25.30;95.70;;;;;;5047186;28;20106;-75
2023/05/24 08:06:36;;;;;;;19.13;14.05;;;25.20;96.00;;;;;;5047323;28;20137;-75
2023/05/24 08:09:10;;;;;;;19.92;14.25;;;25.40;95.60;;;;;;5048538;28;20397;-81
2023/05/24 08:11:38;;;;;;;17.17;12.93;;;25.50;94.80;;;;;;5028626;28;20041;-77
2023/05/24 08:14:09;;;;;;;21.73;12.13;;;25.60;94.90;;;;;;5048216;28;20323;-78
2023/05/24 08:16:36;;;;;;;93.07;69.88;;;25.10;95.00;;;;;;5047408;28;20048;-78
2023/05/24 08:19:05;;;;;;;62.78;49.88;;;24.80;95.40;;;;;;5043954;28;20107;-79
2023/05/24 08:21:33;;;;;;;88.45;68.63;;;24.90;96.10;;;;;;5048076;28;20076;-79
2023/05/24 08:24:01;;;;;;;111.47;89.38;;;25.10;94.60;;;;;;5048179;28;20107;-78
2023/05/24 08:26:28;;;;;;;14.88;9.85;;;25.00;94.30;;;;;;5047260;28;20048;-76
2023/05/24 08:28:55;;;;;;;18.35;13.88;;;25.30;92.70;;;;;;5048073;28;20033;-78
2023/05/24 08:31:23;;;;;;;27.50;20.75;;;25.30;92.40;;;;;;5028430;28;20052;-78
2023/05/24 08:33:50;;;;;;;12.00;9.32;;;25.30;92.00;;;;;;5047575;28;20045;-75
2023/05/24 08:36:19;;;;;;;9.40;6.75;;;25.40;91.60;;;;;;5047551;28;20033;-75
2023/05/24 08:38:46;;;;;;;9.80;6.82;;;25.40;91.60;;;;;;5045584;28;20143;-75
2023/05/24 08:41:14;;;;;;;10.65;6.68;;;25.70;90.70;;;;;;5047185;28;20045;-75
2023/05/24 08:43:42;;;;;;;10.48;8.48;;;26.00;90.10;;;;;;5047619;28;20041;-74
2023/05/24 08:46:11;;;;;;;9.38;7.00;;;25.90;90.40;;;;;;5045941;28;20044;-75
2023/05/24 08:48:45;;;;;;;7.13;6.05;;;26.20;88.10;;;;;;5046936;28;20207;-75
2023/05/24 08:51:14;;;;;;;7.45;6.63;;;26.40;86.00;;;;;;5048198;28;20064;-74
2023/05/24 08:53:47;;;;;;;12.20;5.63;;;26.40;86.30;;;;;;5047055;28;20076;-75
2023/05/24 08:56:17;;;;;;;9.18;5.43;;;26.40;84.20;;;;;;5048035;28;20033;-74
2023/05/24 08:58:45;;;;;;;9.18;6.32;;;26.40;82.80;;;;;;5048201;28;20041;-74
2023/05/24 09:01:16;;;;;;;9.63;5.72;;;26.30;83.60;;;;;;5047789;28;20049;-73
2023/05/24 09:03:47;;;;;;;9.32;6.85;;;26.30;84.80;;;;;;5045893;28;20055;-76
2023/05/24 09:06:17;;;;;;;9.50;7.05;;;26.70;84.10;;;;;;5046835;28;20075;-75
2023/05/24 09:08:46;;;;;;;10.68;8.43;;;26.70;82.60;;;;;;5045955;28;20045;-75
2023/05/24 09:11:16;;;;;;;15.57;13.60;;;26.80;84.10;;;;;;5047756;28;20080;-75
2023/05/24 09:13:45;;;;;;;6.57;5.72;;;27.00;81.40;;;;;;5048181;28;20041;-75
2023/05/24 09:16:13;;;;;;;8.30;5.55;;;27.00;79.50;;;;;;5046582;28;20545;-74
2023/05/24 09:18:41;;;;;;;6.43;5.40;;;26.80;78.60;;;;;;5045894;28;20120;-74
2023/05/24 09:21:10;;;;;;;6.90;5.40;;;26.50;78.50;;;;;;5045528;28;20041;-74
2023/05/24 09:23:38;;;;;;;7.22;5.80;;;26.20;79.60;;;;;;5061817;28;20428;-75
2023/05/24 09:26:10;;;;;;;9.18;5.30;;;26.50;80.40;;;;;;5047727;28;20444;-75
2023/05/24 09:28:40;;;;;;;8.98;5.28;;;26.80;79.60;;;;;;5048880;28;20049;-74
2023/05/24 09:31:08;;;;;;;6.90;5.90;;;27.20;78.30;;;;;;5051422;28;20095;-75
2023/05/24 09:33:36;;;;;;;6.72;4.90;;;27.30;77.70;;;;;;5052370;28;20131;-75
2023/05/24 09:36:05;;;;;;;7.75;5.13;;;27.60;76.70;;;;;;5050552;28;20056;-76
2023/05/24 09:38:34;;;;;;;9.30;5.90;;;27.30;75.90;;;;;;5030943;28;20132;-74
2023/05/24 09:41:03;;;;;;;8.98;5.53;;;27.10;77.40;;;;;;5050317;28;20610;-74
2023/05/24 09:43:33;;;;;;;7.90;5.38;;;27.00;76.90;;;;;;5050611;28;20077;-75
2023/05/24 09:46:03;;;;;;;8.23;5.70;;;27.00;77.10;;;;;;5050327;28;20041;-74
2023/05/24 09:48:31;;;;;;;8.35;6.03;;;26.80;77.60;;;;;;5032164;28;20076;-75
2023/05/24 09:51:04;;;;;;;8.82;5.70;;;26.50;79.10;;;;;;5031857;28;20524;-75
2023/05/24 09:53:32;;;;;;;7.82;6.18;;;26.40;79.70;;;;;;5050428;28;20094;-75
2023/05/24 09:56:00;;;;;;;7.85;6.05;;;26.40;80.70;;;;;;5051425;28;20649;-75
2023/05/24 09:58:32;;;;;;;10.38;6.35;;;26.10;80.20;;;;;;5049467;28;20561;-74
2023/05/24 10:01:09;;;;;;;13.60;7.35;;;25.90;81.20;;;;;;5031517;28;20037;-75
2023/05/24 10:03:37;;;;;;;8.00;6.63;;;26.00;82.30;;;;;;5049163;28;20048;-76
2023/05/24 10:06:06;;;;;;;8.02;6.55;;;26.30;81.60;;;;;;5050665;28;20041;-73
2023/05/24 10:08:35;;;;;;;9.25;6.25;;;26.60;82.10;;;;;;5029970;28;20056;-74
2023/05/24 10:11:04;;;;;;;9.68;6.03;;;26.90;79.10;;;;;;5051100;28;20496;-75
2023/05/24 10:13:34;;;;;;;7.95;6.07;;;26.80;77.70;;;;;;5049653;28;20301;-74
2023/05/24 10:16:02;;;;;;;11.07;6.68;;;26.70;77.60;;;;;;5050223;28;20099;-75
2023/05/24 10:18:30;;;;;;;8.50;6.20;;;26.40;78.10;;;;;;5049639;28;20045;-74
2023/05/24 10:20:58;;;;;;;7.40;6.10;;;25.90;79.00;;;;;;5039398;28;20037;-74
2023/05/24 10:23:29;;;;;;;9.32;6.63;;;25.80;81.30;;;;;;5048095;28;20468;-75
2023/05/24 10:26:05;;;;;;;7.18;5.60;;;25.70;82.50;;;;;;5051171;28;20143;-74
2023/05/24 10:28:36;;;;;;;10.13;6.80;;;25.80;82.90;;;;;;5049891;28;20569;-76
2023/05/24 10:31:11;;;;;;;10.02;6.93;;;25.90;82.90;;;;;;5049271;28;20056;-73
2023/05/24 10:33:39;;;;;;;10.05;6.53;;;25.90;82.10;;;;;;5049180;28;20493;-74
2023/05/24 10:36:09;;;;;;;10.32;7.45;;;25.80;81.40;;;;;;5049076;28;20091;-74
2023/05/24 10:38:39;;;;;;;11.10;7.07;;;25.70;80.70;;;;;;5048742;28;20037;-73
2023/05/24 10:41:07;;;;;;;9.20;6.55;;;25.80;81.60;;;;;;5049273;28;20037;-74
2023/05/24 10:43:37;;;;;;;7.10;5.75;;;26.10;80.90;;;;;;5049150;28;20072;-75
2023/05/24 10:46:08;;;;;;;7.63;6.30;;;26.10;81.50;;;;;;5049357;28;20155;-74
2023/05/24 10:48:37;;;;;;;9.40;6.53;;;26.00;82.10;;;;;;5030242;28;20093;-74
2023/05/24 10:51:31;;;;;;;12.45;7.63;;;25.70;82.40;;;;;;5049351;28;20051;-75
2023/05/24 10:54:10;;;;;;;8.60;6.68;;;25.50;85.40;;;;;;5036738;28;20143;-75
2023/05/24 10:56:41;;;;;;;11.68;6.85;;;25.20;84.00;;;;;;5049652;28;20041;-74
2023/05/24 10:59:09;;;;;;;8.52;7.00;;;25.00;86.00;;;;;;5048529;28;20067;-75
2023/05/24 11:01:37;;;;;;;9.68;6.70;;;25.10;86.70;;;;;;5049270;28;20053;-75
2023/05/24 11:04:09;;;;;;;8.68;6.82;;;25.30;87.40;;;;;;5048862;28;20562;-75
2023/05/24 11:06:47;;;;;;;9.82;7.18;;;25.40;86.60;;;;;;5048607;28;20395;-75
2023/05/24 11:09:15;;;;;;;7.22;6.18;;;25.40;82.80;;;;;;5048348;28;20118;-75
2023/05/24 11:11:46;;;;;;;85.43;9.88;;;25.30;82.10;;;;;;5048791;28;20055;-74
2023/05/24 11:14:19;;;;;;;8.88;7.32;;;25.40;83.60;;;;;;5044150;28;20107;-75
2023/05/24 11:16:49;;;;;;;8.55;6.35;;;25.40;84.10;;;;;;5049089;28;20029;-74
2023/05/24 11:19:19;;;;;;;8.90;6.25;;;25.80;84.00;;;;;;5029686;28;20127;-75
2023/05/24 11:21:47;;;;;;;8.40;6.80;;;25.50;84.50;;;;;;5050202;28;20052;-76
2023/05/24 11:24:16;;;;;;;14.38;6.93;;;25.20;86.00;;;;;;5053571;28;20464;-75
2023/05/24 11:26:44;;;;;;;7.95;6.53;;;25.00;86.80;;;;;;5059050;28;20051;-74
2023/05/24 11:29:19;;;;;;;8.75;6.50;;;24.90;88.10;;;;;;5055635;28;20048;-75
2023/05/24 11:31:51;;;;;;;8.35;6.50;;;25.10;88.00;;;;;;5059345;28;20037;-74
2023/05/24 11:34:19;;;;;;;9.20;6.47;;;25.20;87.10;;;;;;5061170;28;20060;-74
2023/05/24 11:36:47;;;;;;;7.38;6.40;;;25.50;88.30;;;;;;5039465;28;20044;-74
2023/05/24 11:39:15;;;;;;;8.30;6.10;;;25.90;87.60;;;;;;5059202;28;20112;-74
2023/05/24 11:41:45;;;;;;;7.57;6.03;;;26.10;85.90;;;;;;5054513;28;20077;-75
2023/05/24 11:44:19;;;;;;;12.15;6.50;;;25.80;85.90;;;;;;5058696;28;20182;-76
2023/05/24 11:46:46;;;;;;;7.35;5.63;;;25.30;86.30;;;;;;5049346;28;20065;-75
2023/05/24 11:49:14;;;;;;;8.65;6.35;;;25.00;87.70;;;;;;5048064;28;20594;-74
2023/05/24 11:51:42;;;;;;;7.20;5.90;;;24.90;89.50;;;;;;5047906;28;20059;-74
2023/05/24 11:54:10;;;;;;;7.25;6.20;;;25.00;90.50;;;;;;5047080;28;20083;-75
2023/05/24 11:56:38;;;;;;;7.90;6.05;;;24.90;91.10;;;;;;5048599;28;20484;-74
2023/05/24 11:59:25;;;;;;;8.27;5.97;;;25.00;91.50;;;;;;5048242;28;20100;-75
2023/05/24 12:01:58;;;;;;;6.80;5.93;;;24.90;90.80;;;;;;5049271;28;20052;-76
2023/05/24 12:04:26;;;;;;;7.85;6.00;;;25.00;88.50;;;;;;5047311;28;20090;-73
2023/05/24 12:06:54;;;;;;;6.32;5.13;;;25.20;89.40;;;;;;5047703;28;20052;-75
2023/05/24 12:09:22;;;;;;;9.00;5.45;;;25.30;87.80;;;;;;5048159;28;20437;-74
2023/05/24 12:11:51;;;;;;;10.07;5.30;;;25.20;85.80;;;;;;5048869;28;20493;-74
2023/05/24 12:14:19;;;;;;;6.57;5.35;;;25.00;86.90;;;;;;5028240;28;20040;-74
2023/05/24 12:16:48;;;;;;;8.82;5.22;;;24.90;87.70;;;;;;5049462;28;20102;-74
2023/05/24 12:19:19;;;;;;;6.70;5.53;;;24.70;87.30;;;;;;5050297;28;20041;-75
2023/05/24 12:21:48;;;;;;;8.05;5.45;;;24.70;86.40;;;;;;5047968;28;20060;-75
2023/05/24 12:24:18;;;;;;;11.32;7.75;;;24.90;87.40;;;;;;5048387;28;20134;-74
2023/05/24 12:26:47;;;;;;;7.90;5.47;;;25.00;87.00;;;;;;5046812;28;20120;-74
2023/05/24 12:29:15;;;;;;;7.25;5.47;;;25.20;87.10;;;;;;5046156;28;20073;-74
2023/05/24 12:31:44;;;;;;;7.53;5.40;;;25.50;85.90;;;;;;5047647;28;20481;-74
2023/05/24 12:34:14;;;;;;;8.50;5.53;;;25.60;85.80;;;;;;5047533;28;20064;-75
2023/05/24 12:36:42;;;;;;;11.48;7.13;;;25.60;85.90;;;;;;5047622;28;20497;-75
2023/05/24 12:39:20;;;;;;;6.82;5.40;;;25.40;85.80;;;;;;5044125;28;20471;-74
2023/05/24 12:41:52;;;;;;;5.95;4.90;;;25.30;84.30;;;;;;5047085;28;20140;-74
2023/05/24 12:44:24;;;;;;;7.50;5.15;;;25.20;86.70;;;;;;5047416;28;20045;-75
2023/05/24 12:46:53;;;;;;;7.45;5.68;;;25.30;87.60;;;;;;5048190;28;20116;-75